sensor_id;sensor_type;location;lat;lon;timestamp;P1;durP1;ratioP1;P2;durP2;ratioP2
68072;SDS011;54862;51.502;7.446;2023-11-21T00:01:34;6.05;;;2.28;;
68072;SDS011;54862;51.502;7.446;2023-11-21T00:04:00;5.40;;;3.33;;
68072;SDS011;54862;51.502;7.446;2023-11-21T00:06:26;6.93;;;3.47;;
68072;SDS011;54862;51.502;7.446;2023-11-21T00:08:52;6.97;;;2.97;;
68072;SDS011;54862;51.502;7.446;2023-11-21T00:11:21;4.88;;;2.38;;
68072;SDS011;54862;51.502;7.446;2023-11-21T00:13:47;7.30;;;3.03;;
68072;SDS011;54862;51.502;7.446;2023-11-21T00:16:13;9.65;;;3.50;;
68072;SDS011;54862;51.502;7.446;2023-11-21T00:18:41;2.67;;;2.08;;
68072;SDS011;54862;51.502;7.446;2023-11-21T00:21:07;6.18;;;2.80;;
68072;SDS011;54862;51.502;7.446;2023-11-21T00:23:36;5.93;;;3.58;;
68072;SDS011;54862;51.502;7.446;2023-11-21T00:26:05;2.38;;;1.98;;
68072;SDS011;54862;51.502;7.446;2023-11-21T00:28:31;9.10;;;3.20;;
68072;SDS011;54862;51.502;7.446;2023-11-21T00:30:57;4.65;;;2.65;;
68072;SDS011;54862;51.502;7.446;2023-11-21T00:33:25;3.30;;;2.42;;
68072;SDS011;54862;51.502;7.446;2023-11-21T00:35:52;3.72;;;2.60;;
68072;SDS011;54862;51.502;7.446;2023-11-21T00:38:20;5.80;;;3.00;;
68072;SDS011;54862;51.502;7.446;2023-11-21T00:40:46;2.35;;;1.77;;
68072;SDS011;54862;51.502;7.446;2023-11-21T00:43:12;5.03;;;2.75;;
68072;SDS011;54862;51.502;7.446;2023-11-21T00:45:38;12.25;;;4.68;;
68072;SDS011;54862;51.502;7.446;2023-11-21T00:48:05;15.02;;;8.30;;
68072;SDS011;54862;51.502;7.446;2023-11-21T00:50:33;11.88;;;6.68;;
68072;SDS011;54862;51.502;7.446;2023-11-21T00:52:59;8.40;;;4.35;;
68072;SDS011;54862;51.502;7.446;2023-11-21T00:55:27;6.72;;;3.83;;
68072;SDS011;54862;51.502;7.446;2023-11-21T00:57:54;7.75;;;2.90;;
68072;SDS011;54862;51.502;7.446;2023-11-21T01:00:23;4.10;;;2.72;;
68072;SDS011;54862;51.502;7.446;2023-11-21T01:02:49;3.83;;;2.65;;
68072;SDS011;54862;51.502;7.446;2023-11-21T01:05:15;5.05;;;2.78;;
68072;SDS011;54862;51.502;7.446;2023-11-21T01:07:44;2.20;;;1.83;;
68072;SDS011;54862;51.502;7.446;2023-11-21T01:10:10;10.35;;;3.13;;
68072;SDS011;54862;51.502;7.446;2023-11-21T01:12:39;2.40;;;2.08;;
68072;SDS011;54862;51.502;7.446;2023-11-21T01:15:05;3.60;;;2.50;;
68072;SDS011;54862;51.502;7.446;2023-11-21T01:17:37;1.60;;;1.45;;
68072;SDS011;54862;51.502;7.446;2023-11-21T01:20:03;3.63;;;2.13;;
68072;SDS011;54862;51.502;7.446;2023-11-21T01:22:36;3.63;;;2.10;;
68072;SDS011;54862;51.502;7.446;2023-11-21T01:25:02;2.70;;;1.95;;
68072;SDS011;54862;51.502;7.446;2023-11-21T01:27:35;4.55;;;2.55;;
68072;SDS011;54862;51.502;7.446;2023-11-21T01:30:02;6.25;;;2.95;;
68072;SDS011;54862;51.502;7.446;2023-11-21T01:32:29;9.60;;;3.25;;
68072;SDS011;54862;51.502;7.446;2023-11-21T01:34:55;9.35;;;2.75;;
68072;SDS011;54862;51.502;7.446;2023-11-21T01:37:21;6.55;;;2.25;;
68072;SDS011;54862;51.502;7.446;2023-11-21T01:39:47;6.13;;;2.65;;
68072;SDS011;54862;51.502;7.446;2023-11-21T01:42:13;4.57;;;2.40;;
68072;SDS011;54862;51.502;7.446;2023-11-21T01:44:42;5.07;;;2.45;;
68072;SDS011;54862;51.502;7.446;2023-11-21T01:47:08;5.13;;;2.35;;
68072;SDS011;54862;51.502;7.446;2023-11-21T01:49:35;2.63;;;1.92;;
68072;SDS011;54862;51.502;7.446;2023-11-21T01:52:03;8.65;;;2.80;;
68072;SDS011;54862;51.502;7.446;2023-11-21T01:54:31;6.65;;;3.15;;
68072;SDS011;54862;51.502;7.446;2023-11-21T01:57:01;4.38;;;2.42;;
68072;SDS011;54862;51.502;7.446;2023-11-21T01:59:27;3.78;;;2.53;;
68072;SDS011;54862;51.502;7.446;2023-11-21T02:01:57;6.13;;;2.78;;
68072;SDS011;54862;51.502;7.446;2023-11-21T02:04:23;3.40;;;2.10;;
68072;SDS011;54862;51.502;7.446;2023-11-21T02:06:51;10.77;;;3.35;;
68072;SDS011;54862;51.502;7.446;2023-11-21T02:09:22;5.35;;;2.60;;
68072;SDS011;54862;51.502;7.446;2023-11-21T02:11:50;4.82;;;2.67;;
68072;SDS011;54862;51.502;7.446;2023-11-21T02:14:19;4.47;;;2.33;;
68072;SDS011;54862;51.502;7.446;2023-11-21T02:16:47;5.93;;;2.78;;
68072;SDS011;54862;51.502;7.446;2023-11-21T02:19:14;3.97;;;2.88;;
68072;SDS011;54862;51.502;7.446;2023-11-21T02:21:47;5.57;;;3.05;;
68072;SDS011;54862;51.502;7.446;2023-11-21T02:24:16;6.63;;;3.10;;
68072;SDS011;54862;51.502;7.446;2023-11-21T02:26:42;6.00;;;3.53;;
68072;SDS011;54862;51.502;7.446;2023-11-21T02:29:08;10.55;;;3.88;;
68072;SDS011;54862;51.502;7.446;2023-11-21T02:31:37;7.68;;;3.05;;
68072;SDS011;54862;51.502;7.446;2023-11-21T02:34:10;3.15;;;2.30;;
68072;SDS011;54862;51.502;7.446;2023-11-21T02:36:38;4.60;;;2.58;;
68072;SDS011;54862;51.502;7.446;2023-11-21T02:39:04;6.70;;;2.85;;
68072;SDS011;54862;51.502;7.446;2023-11-21T02:41:32;7.10;;;3.30;;
68072;SDS011;54862;51.502;7.446;2023-11-21T02:44:03;3.70;;;2.50;;
68072;SDS011;54862;51.502;7.446;2023-11-21T02:46:31;5.22;;;3.05;;
68072;SDS011;54862;51.502;7.446;2023-11-21T02:49:03;5.00;;;2.85;;
68072;SDS011;54862;51.502;7.446;2023-11-21T02:51:31;9.93;;;3.67;;
68072;SDS011;54862;51.502;7.446;2023-11-21T02:53:57;7.63;;;3.22;;
68072;SDS011;54862;51.502;7.446;2023-11-21T02:56:26;5.07;;;2.97;;
68072;SDS011;54862;51.502;7.446;2023-11-21T02:58:52;11.75;;;3.33;;
68072;SDS011;54862;51.502;7.446;2023-11-21T03:01:18;4.40;;;2.67;;
68072;SDS011;54862;51.502;7.446;2023-11-21T03:03:44;5.68;;;2.70;;
68072;SDS011;54862;51.502;7.446;2023-11-21T03:06:16;4.60;;;2.50;;
68072;SDS011;54862;51.502;7.446;2023-11-21T03:08:42;5.05;;;2.38;;
68072;SDS011;54862;51.502;7.446;2023-11-21T03:11:08;7.43;;;3.50;;
68072;SDS011;54862;51.502;7.446;2023-11-21T03:13:34;5.53;;;2.78;;
68072;SDS011;54862;51.502;7.446;2023-11-21T03:16:00;5.32;;;3.20;;
68072;SDS011;54862;51.502;7.446;2023-11-21T03:18:25;5.63;;;3.08;;
68072;SDS011;54862;51.502;7.446;2023-11-21T03:20:54;4.28;;;2.63;;
68072;SDS011;54862;51.502;7.446;2023-11-21T03:23:20;5.90;;;3.22;;
68072;SDS011;54862;51.502;7.446;2023-11-21T03:25:46;6.57;;;2.55;;
68072;SDS011;54862;51.502;7.446;2023-11-21T03:28:12;6.22;;;3.15;;
68072;SDS011;54862;51.502;7.446;2023-11-21T03:30:38;5.75;;;3.17;;
68072;SDS011;54862;51.502;7.446;2023-11-21T03:33:04;5.05;;;2.45;;
68072;SDS011;54862;51.502;7.446;2023-11-21T03:35:32;6.30;;;3.53;;
68072;SDS011;54862;51.502;7.446;2023-11-21T03:37:58;7.35;;;3.97;;
68072;SDS011;54862;51.502;7.446;2023-11-21T03:40:24;6.97;;;3.92;;
68072;SDS011;54862;51.502;7.446;2023-11-21T03:42:50;2.97;;;2.60;;
68072;SDS011;54862;51.502;7.446;2023-11-21T03:45:18;5.28;;;3.53;;
68072;SDS011;54862;51.502;7.446;2023-11-21T03:47:44;6.05;;;3.08;;
68072;SDS011;54862;51.502;7.446;2023-11-21T03:50:10;2.97;;;1.98;;
68072;SDS011;54862;51.502;7.446;2023-11-21T03:52:36;6.13;;;3.40;;
68072;SDS011;54862;51.502;7.446;2023-11-21T03:55:03;5.60;;;3.05;;
68072;SDS011;54862;51.502;7.446;2023-11-21T03:57:29;5.53;;;3.42;;
68072;SDS011;54862;51.502;7.446;2023-11-21T03:59:55;4.10;;;2.20;;
68072;SDS011;54862;51.502;7.446;2023-11-21T04:02:21;6.28;;;3.40;;
68072;SDS011;54862;51.502;7.446;2023-11-21T04:04:47;4.80;;;2.80;;
68072;SDS011;54862;51.502;7.446;2023-11-21T04:07:13;6.63;;;2.83;;
68072;SDS011;54862;51.502;7.446;2023-11-21T04:09:41;9.00;;;3.30;;
68072;SDS011;54862;51.502;7.446;2023-11-21T04:12:07;7.43;;;3.92;;
68072;SDS011;54862;51.502;7.446;2023-11-21T04:14:34;5.88;;;3.33;;
68072;SDS011;54862;51.502;7.446;2023-11-21T04:17:00;4.85;;;2.40;;
68072;SDS011;54862;51.502;7.446;2023-11-21T04:19:26;5.80;;;3.13;;
68072;SDS011;54862;51.502;7.446;2023-11-21T04:21:52;8.07;;;3.42;;
68072;SDS011;54862;51.502;7.446;2023-11-21T04:24:21;6.78;;;3.45;;
68072;SDS011;54862;51.502;7.446;2023-11-21T04:26:49;6.88;;;3.05;;
68072;SDS011;54862;51.502;7.446;2023-11-21T04:29:15;10.82;;;2.60;;
68072;SDS011;54862;51.502;7.446;2023-11-21T04:31:41;5.15;;;2.80;;
68072;SDS011;54862;51.502;7.446;2023-11-21T04:34:08;5.13;;;2.92;;
68072;SDS011;54862;51.502;7.446;2023-11-21T04:36:36;5.60;;;3.28;;
68072;SDS011;54862;51.502;7.446;2023-11-21T04:39:04;6.22;;;3.00;;
68072;SDS011;54862;51.502;7.446;2023-11-21T04:41:31;5.18;;;2.38;;
68072;SDS011;54862;51.502;7.446;2023-11-21T04:43:57;9.65;;;3.17;;
68072;SDS011;54862;51.502;7.446;2023-11-21T04:46:27;6.85;;;2.72;;
68072;SDS011;54862;51.502;7.446;2023-11-21T04:48:53;4.38;;;2.80;;
68072;SDS011;54862;51.502;7.446;2023-11-21T04:51:19;2.45;;;2.10;;
68072;SDS011;54862;51.502;7.446;2023-11-21T04:53:45;4.35;;;2.65;;
68072;SDS011;54862;51.502;7.446;2023-11-21T04:56:11;2.55;;;1.92;;
68072;SDS011;54862;51.502;7.446;2023-11-21T04:58:40;4.57;;;2.92;;
68072;SDS011;54862;51.502;7.446;2023-11-21T05:01:07;11.55;;;2.72;;
68072;SDS011;54862;51.502;7.446;2023-11-21T05:03:33;4.70;;;2.90;;
68072;SDS011;54862;51.502;7.446;2023-11-21T05:06:03;5.15;;;3.15;;
68072;SDS011;54862;51.502;7.446;2023-11-21T05:08:30;3.30;;;2.75;;
68072;SDS011;54862;51.502;7.446;2023-11-21T05:10:58;6.72;;;3.35;;
68072;SDS011;54862;51.502;7.446;2023-11-21T05:13:24;6.40;;;3.20;;
68072;SDS011;54862;51.502;7.446;2023-11-21T05:15:53;5.53;;;3.05;;
68072;SDS011;54862;51.502;7.446;2023-11-21T05:18:19;4.30;;;3.00;;
68072;SDS011;54862;51.502;7.446;2023-11-21T05:20:45;5.28;;;2.72;;
68072;SDS011;54862;51.502;7.446;2023-11-21T05:23:13;4.10;;;2.60;;
68072;SDS011;54862;51.502;7.446;2023-11-21T05:25:39;3.90;;;2.50;;
68072;SDS011;54862;51.502;7.446;2023-11-21T05:28:06;6.65;;;2.95;;
68072;SDS011;54862;51.502;7.446;2023-11-21T05:30:32;5.15;;;2.75;;
68072;SDS011;54862;51.502;7.446;2023-11-21T05:32:58;4.40;;;2.65;;
68072;SDS011;54862;51.502;7.446;2023-11-21T05:35:24;7.78;;;3.30;;
68072;SDS011;54862;51.502;7.446;2023-11-21T05:37:51;4.55;;;2.85;;
68072;SDS011;54862;51.502;7.446;2023-11-21T05:40:17;4.55;;;2.63;;
68072;SDS011;54862;51.502;7.446;2023-11-21T05:42:43;5.65;;;3.67;;
68072;SDS011;54862;51.502;7.446;2023-11-21T05:45:10;4.72;;;2.50;;
68072;SDS011;54862;51.502;7.446;2023-11-21T05:47:40;8.27;;;3.28;;
68072;SDS011;54862;51.502;7.446;2023-11-21T05:50:06;4.40;;;2.45;;
68072;SDS011;54862;51.502;7.446;2023-11-21T05:52:37;6.63;;;2.63;;
68072;SDS011;54862;51.502;7.446;2023-11-21T05:55:07;8.98;;;3.85;;
68072;SDS011;54862;51.502;7.446;2023-11-21T05:57:34;7.78;;;2.28;;
68072;SDS011;54862;51.502;7.446;2023-11-21T06:02:36;5.35;;;2.95;;
68072;SDS011;54862;51.502;7.446;2023-11-21T06:05:02;5.78;;;3.17;;
68072;SDS011;54862;51.502;7.446;2023-11-21T06:07:29;7.78;;;3.00;;
68072;SDS011;54862;51.502;7.446;2023-11-21T06:09:55;7.35;;;3.03;;
68072;SDS011;54862;51.502;7.446;2023-11-21T06:12:21;6.25;;;2.85;;
68072;SDS011;54862;51.502;7.446;2023-11-21T06:14:47;5.82;;;3.10;;
68072;SDS011;54862;51.502;7.446;2023-11-21T06:17:13;6.28;;;2.83;;
68072;SDS011;54862;51.502;7.446;2023-11-21T06:19:39;3.38;;;2.50;;
68072;SDS011;54862;51.502;7.446;2023-11-21T06:22:05;3.85;;;2.05;;
68072;SDS011;54862;51.502;7.446;2023-11-21T06:24:31;10.93;;;2.63;;
68072;SDS011;54862;51.502;7.446;2023-11-21T06:26:57;6.18;;;2.78;;
68072;SDS011;54862;51.502;7.446;2023-11-21T06:29:23;4.25;;;2.25;;
68072;SDS011;54862;51.502;7.446;2023-11-21T06:31:49;5.45;;;3.13;;
68072;SDS011;54862;51.502;7.446;2023-11-21T06:34:19;5.95;;;3.53;;
68072;SDS011;54862;51.502;7.446;2023-11-21T06:36:49;15.20;;;3.35;;
68072;SDS011;54862;51.502;7.446;2023-11-21T06:39:15;6.22;;;2.80;;
68072;SDS011;54862;51.502;7.446;2023-11-21T06:41:42;5.38;;;2.58;;
68072;SDS011;54862;51.502;7.446;2023-11-21T06:44:08;5.28;;;3.35;;
68072;SDS011;54862;51.502;7.446;2023-11-21T06:46:34;6.72;;;3.97;;
68072;SDS011;54862;51.502;7.446;2023-11-21T06:49:00;5.28;;;3.03;;
68072;SDS011;54862;51.502;7.446;2023-11-21T06:51:26;6.35;;;2.70;;
68072;SDS011;54862;51.502;7.446;2023-11-21T06:53:52;5.93;;;3.45;;
68072;SDS011;54862;51.502;7.446;2023-11-21T06:56:18;5.22;;;3.30;;
68072;SDS011;54862;51.502;7.446;2023-11-21T06:58:47;6.63;;;3.13;;
68072;SDS011;54862;51.502;7.446;2023-11-21T07:01:14;7.32;;;3.53;;
68072;SDS011;54862;51.502;7.446;2023-11-21T07:03:40;6.63;;;3.40;;
68072;SDS011;54862;51.502;7.446;2023-11-21T07:06:07;10.15;;;3.90;;
68072;SDS011;54862;51.502;7.446;2023-11-21T07:08:33;3.40;;;2.58;;
68072;SDS011;54862;51.502;7.446;2023-11-21T07:10:59;5.32;;;2.60;;
68072;SDS011;54862;51.502;7.446;2023-11-21T07:13:27;9.30;;;3.67;;
68072;SDS011;54862;51.502;7.446;2023-11-21T07:15:54;7.28;;;3.30;;
68072;SDS011;54862;51.502;7.446;2023-11-21T07:18:20;8.63;;;3.47;;
68072;SDS011;54862;51.502;7.446;2023-11-21T07:20:46;3.05;;;2.47;;
68072;SDS011;54862;51.502;7.446;2023-11-21T07:23:12;5.63;;;3.35;;
68072;SDS011;54862;51.502;7.446;2023-11-21T07:25:38;3.95;;;3.28;;
68072;SDS011;54862;51.502;7.446;2023-11-21T07:28:06;8.77;;;3.40;;
68072;SDS011;54862;51.502;7.446;2023-11-21T07:30:32;5.05;;;3.33;;
68072;SDS011;54862;51.502;7.446;2023-11-21T07:32:58;6.95;;;3.47;;
68072;SDS011;54862;51.502;7.446;2023-11-21T07:35:24;8.95;;;3.45;;
68072;SDS011;54862;51.502;7.446;2023-11-21T07:37:51;6.13;;;3.25;;
68072;SDS011;54862;51.502;7.446;2023-11-21T07:40:20;4.10;;;2.70;;
68072;SDS011;54862;51.502;7.446;2023-11-21T07:42:47;4.40;;;3.28;;
68072;SDS011;54862;51.502;7.446;2023-11-21T07:45:15;5.88;;;3.40;;
68072;SDS011;54862;51.502;7.446;2023-11-21T07:47:41;11.90;;;4.78;;
68072;SDS011;54862;51.502;7.446;2023-11-21T07:50:09;15.75;;;4.63;;
68072;SDS011;54862;51.502;7.446;2023-11-21T07:52:35;10.20;;;5.20;;
68072;SDS011;54862;51.502;7.446;2023-11-21T07:55:01;12.88;;;5.55;;
68072;SDS011;54862;51.502;7.446;2023-11-21T07:57:28;11.05;;;3.55;;
68072;SDS011;54862;51.502;7.446;2023-11-21T07:59:54;12.48;;;5.63;;
68072;SDS011;54862;51.502;7.446;2023-11-21T08:02:21;8.38;;;3.95;;
68072;SDS011;54862;51.502;7.446;2023-11-21T08:04:47;6.90;;;4.10;;
68072;SDS011;54862;51.502;7.446;2023-11-21T08:07:15;10.38;;;4.40;;
68072;SDS011;54862;51.502;7.446;2023-11-21T08:09:41;5.95;;;3.42;;
68072;SDS011;54862;51.502;7.446;2023-11-21T08:12:09;8.23;;;3.40;;
68072;SDS011;54862;51.502;7.446;2023-11-21T08:14:35;12.35;;;3.55;;
68072;SDS011;54862;51.502;7.446;2023-11-21T08:17:04;7.70;;;3.40;;
68072;SDS011;54862;51.502;7.446;2023-11-21T08:19:30;10.38;;;3.92;;
68072;SDS011;54862;51.502;7.446;2023-11-21T08:21:56;6.93;;;3.53;;
68072;SDS011;54862;51.502;7.446;2023-11-21T08:24:24;8.88;;;4.45;;
68072;SDS011;54862;51.502;7.446;2023-11-21T08:26:51;6.45;;;3.55;;
68072;SDS011;54862;51.502;7.446;2023-11-21T08:29:21;6.70;;;3.35;;
68072;SDS011;54862;51.502;7.446;2023-11-21T08:31:48;6.40;;;3.17;;
68072;SDS011;54862;51.502;7.446;2023-11-21T08:34:14;10.95;;;3.13;;
68072;SDS011;54862;51.502;7.446;2023-11-21T08:36:43;5.88;;;2.78;;
68072;SDS011;54862;51.502;7.446;2023-11-21T08:39:10;6.20;;;3.15;;
68072;SDS011;54862;51.502;7.446;2023-11-21T08:41:38;17.02;;;4.45;;
68072;SDS011;54862;51.502;7.446;2023-11-21T08:44:06;5.47;;;3.67;;
68072;SDS011;54862;51.502;7.446;2023-11-21T08:46:33;7.70;;;3.97;;
68072;SDS011;54862;51.502;7.446;2023-11-21T08:49:00;13.75;;;3.42;;
68072;SDS011;54862;51.502;7.446;2023-11-21T08:51:26;7.13;;;3.22;;
68072;SDS011;54862;51.502;7.446;2023-11-21T08:53:52;5.43;;;2.92;;
68072;SDS011;54862;51.502;7.446;2023-11-21T08:56:24;5.93;;;2.85;;
68072;SDS011;54862;51.502;7.446;2023-11-21T08:58:52;8.63;;;3.50;;
68072;SDS011;54862;51.502;7.446;2023-11-21T09:01:18;10.35;;;4.55;;
68072;SDS011;54862;51.502;7.446;2023-11-21T09:03:44;6.05;;;3.95;;
68072;SDS011;54862;51.502;7.446;2023-11-21T09:06:11;6.28;;;3.28;;
68072;SDS011;54862;51.502;7.446;2023-11-21T09:08:37;8.93;;;3.90;;
68072;SDS011;54862;51.502;7.446;2023-11-21T09:11:03;9.88;;;3.90;;
68072;SDS011;54862;51.502;7.446;2023-11-21T09:13:29;11.13;;;4.25;;
68072;SDS011;54862;51.502;7.446;2023-11-21T09:15:55;8.25;;;3.58;;
68072;SDS011;54862;51.502;7.446;2023-11-21T09:18:23;16.55;;;3.50;;
68072;SDS011;54862;51.502;7.446;2023-11-21T09:20:49;16.67;;;4.93;;
68072;SDS011;54862;51.502;7.446;2023-11-21T09:23:15;8.23;;;4.25;;
68072;SDS011;54862;51.502;7.446;2023-11-21T09:25:41;8.90;;;4.22;;
68072;SDS011;54862;51.502;7.446;2023-11-21T09:28:11;7.25;;;3.00;;
68072;SDS011;54862;51.502;7.446;2023-11-21T09:30:37;10.63;;;4.45;;
68072;SDS011;54862;51.502;7.446;2023-11-21T09:33:03;11.82;;;3.95;;
68072;SDS011;54862;51.502;7.446;2023-11-21T09:35:35;12.50;;;3.90;;
68072;SDS011;54862;51.502;7.446;2023-11-21T09:38:01;5.68;;;2.95;;
68072;SDS011;54862;51.502;7.446;2023-11-21T09:40:30;8.18;;;3.70;;
68072;SDS011;54862;51.502;7.446;2023-11-21T09:42:57;8.70;;;4.20;;
68072;SDS011;54862;51.502;7.446;2023-11-21T09:45:32;12.45;;;5.82;;
68072;SDS011;54862;51.502;7.446;2023-11-21T09:47:59;15.48;;;4.88;;
68072;SDS011;54862;51.502;7.446;2023-11-21T09:50:26;12.02;;;4.57;;
68072;SDS011;54862;51.502;7.446;2023-11-21T09:52:57;19.80;;;6.65;;
68072;SDS011;54862;51.502;7.446;2023-11-21T09:55:26;9.75;;;4.32;;
68072;SDS011;54862;51.502;7.446;2023-11-21T09:57:56;8.98;;;4.60;;
68072;SDS011;54862;51.502;7.446;2023-11-21T10:00:23;31.40;;;5.65;;
68072;SDS011;54862;51.502;7.446;2023-11-21T10:02:49;11.70;;;5.22;;
68072;SDS011;54862;51.502;7.446;2023-11-21T10:05:16;9.98;;;5.82;;
68072;SDS011;54862;51.502;7.446;2023-11-21T10:07:47;12.23;;;4.57;;
68072;SDS011;54862;51.502;7.446;2023-11-21T10:10:18;13.20;;;5.13;;
68072;SDS011;54862;51.502;7.446;2023-11-21T10:12:45;12.27;;;5.45;;
68072;SDS011;54862;51.502;7.446;2023-11-21T10:15:14;17.27;;;5.75;;
68072;SDS011;54862;51.502;7.446;2023-11-21T10:17:41;13.07;;;5.72;;
68072;SDS011;54862;51.502;7.446;2023-11-21T10:20:13;12.98;;;6.32;;
68072;SDS011;54862;51.502;7.446;2023-11-21T10:22:42;15.45;;;5.22;;
68072;SDS011;54862;51.502;7.446;2023-11-21T10:25:08;12.90;;;5.13;;
68072;SDS011;54862;51.502;7.446;2023-11-21T10:27:35;13.82;;;4.28;;
68072;SDS011;54862;51.502;7.446;2023-11-21T10:30:02;15.27;;;6.22;;
68072;SDS011;54862;51.502;7.446;2023-11-21T10:32:29;16.33;;;4.80;;
68072;SDS011;54862;51.502;7.446;2023-11-21T10:34:57;14.95;;;5.50;;
68072;SDS011;54862;51.502;7.446;2023-11-21T10:37:31;13.32;;;5.20;;
68072;SDS011;54862;51.502;7.446;2023-11-21T10:39:58;10.55;;;4.38;;
68072;SDS011;54862;51.502;7.446;2023-11-21T10:42:24;10.43;;;4.95;;
68072;SDS011;54862;51.502;7.446;2023-11-21T10:44:52;14.98;;;5.03;;
68072;SDS011;54862;51.502;7.446;2023-11-21T10:47:18;9.35;;;4.93;;
68072;SDS011;54862;51.502;7.446;2023-11-21T10:49:45;14.57;;;6.22;;
68072;SDS011;54862;51.502;7.446;2023-11-21T10:54:43;24.45;;;6.43;;
68072;SDS011;54862;51.502;7.446;2023-11-21T10:57:10;14.00;;;5.72;;
68072;SDS011;54862;51.502;7.446;2023-11-21T10:59:40;8.20;;;4.75;;
68072;SDS011;54862;51.502;7.446;2023-11-21T11:04:48;12.85;;;5.32;;
68072;SDS011;54862;51.502;7.446;2023-11-21T11:07:16;12.88;;;5.13;;
68072;SDS011;54862;51.502;7.446;2023-11-21T11:09:42;11.75;;;4.63;;
68072;SDS011;54862;51.502;7.446;2023-11-21T11:12:10;8.55;;;4.20;;
68072;SDS011;54862;51.502;7.446;2023-11-21T11:14:38;12.40;;;5.20;;
68072;SDS011;54862;51.502;7.446;2023-11-21T11:17:08;15.10;;;5.32;;
68072;SDS011;54862;51.502;7.446;2023-11-21T11:19:37;20.33;;;6.72;;
68072;SDS011;54862;51.502;7.446;2023-11-21T11:22:08;9.73;;;3.72;;
68072;SDS011;54862;51.502;7.446;2023-11-21T11:30:00;8.23;;;4.60;;
68072;SDS011;54862;51.502;7.446;2023-11-21T11:35:19;17.17;;;7.00;;
68072;SDS011;54862;51.502;7.446;2023-11-21T11:40:16;10.18;;;4.88;;
68072;SDS011;54862;51.502;7.446;2023-11-21T11:43:17;9.32;;;4.07;;
68072;SDS011;54862;51.502;7.446;2023-11-21T11:45:36;11.07;;;4.68;;
68072;SDS011;54862;51.502;7.446;2023-11-21T11:48:06;8.38;;;4.35;;
68072;SDS011;54862;51.502;7.446;2023-11-21T11:50:33;7.00;;;4.15;;
68072;SDS011;54862;51.502;7.446;2023-11-21T11:53:14;10.25;;;4.80;;
68072;SDS011;54862;51.502;7.446;2023-11-21T11:55:43;8.18;;;4.18;;
68072;SDS011;54862;51.502;7.446;2023-11-21T11:58:09;6.50;;;3.55;;
68072;SDS011;54862;51.502;7.446;2023-11-21T12:00:36;8.38;;;3.58;;
68072;SDS011;54862;51.502;7.446;2023-11-21T12:03:05;8.38;;;3.78;;
68072;SDS011;54862;51.502;7.446;2023-11-21T12:05:32;10.93;;;5.15;;
68072;SDS011;54862;51.502;7.446;2023-11-21T12:08:04;8.15;;;3.85;;
68072;SDS011;54862;51.502;7.446;2023-11-21T12:10:31;14.02;;;5.25;;
68072;SDS011;54862;51.502;7.446;2023-11-21T12:13:01;9.85;;;4.50;;
68072;SDS011;54862;51.502;7.446;2023-11-21T12:15:30;8.55;;;4.03;;
68072;SDS011;54862;51.502;7.446;2023-11-21T12:18:01;10.30;;;3.75;;
68072;SDS011;54862;51.502;7.446;2023-11-21T12:20:30;11.70;;;3.88;;
68072;SDS011;54862;51.502;7.446;2023-11-21T12:22:59;9.23;;;4.18;;
68072;SDS011;54862;51.502;7.446;2023-11-21T12:25:27;8.23;;;3.90;;
68072;SDS011;54862;51.502;7.446;2023-11-21T12:27:54;8.60;;;4.75;;
68072;SDS011;54862;51.502;7.446;2023-11-21T12:30:27;10.88;;;4.80;;
68072;SDS011;54862;51.502;7.446;2023-11-21T12:32:55;9.77;;;4.10;;
68072;SDS011;54862;51.502;7.446;2023-11-21T12:35:24;6.30;;;3.38;;
68072;SDS011;54862;51.502;7.446;2023-11-21T12:37:54;12.15;;;3.80;;
68072;SDS011;54862;51.502;7.446;2023-11-21T12:40:22;9.73;;;4.65;;
68072;SDS011;54862;51.502;7.446;2023-11-21T12:42:50;6.78;;;3.83;;
68072;SDS011;54862;51.502;7.446;2023-11-21T12:47:45;9.48;;;4.65;;
68072;SDS011;54862;51.502;7.446;2023-11-21T12:50:13;11.27;;;5.00;;
68072;SDS011;54862;51.502;7.446;2023-11-21T12:52:44;11.07;;;4.68;;
68072;SDS011;54862;51.502;7.446;2023-11-21T12:55:22;8.57;;;4.82;;
68072;SDS011;54862;51.502;7.446;2023-11-21T12:57:49;12.52;;;4.00;;
68072;SDS011;54862;51.502;7.446;2023-11-21T13:00:19;8.45;;;3.90;;
68072;SDS011;54862;51.502;7.446;2023-11-21T13:02:55;8.25;;;4.40;;
68072;SDS011;54862;51.502;7.446;2023-11-21T13:05:27;6.78;;;3.28;;
68072;SDS011;54862;51.502;7.446;2023-11-21T13:07:56;6.80;;;3.50;;
68072;SDS011;54862;51.502;7.446;2023-11-21T13:10:23;9.10;;;4.50;;
68072;SDS011;54862;51.502;7.446;2023-11-21T13:12:54;6.00;;;3.47;;
68072;SDS011;54862;51.502;7.446;2023-11-21T13:15:23;10.05;;;5.05;;
68072;SDS011;54862;51.502;7.446;2023-11-21T13:17:52;6.60;;;3.33;;
68072;SDS011;54862;51.502;7.446;2023-11-21T13:20:21;6.70;;;4.15;;
68072;SDS011;54862;51.502;7.446;2023-11-21T13:22:50;6.30;;;3.20;;
68072;SDS011;54862;51.502;7.446;2023-11-21T13:25:20;9.90;;;3.43;;
68072;SDS011;54862;51.502;7.446;2023-11-21T13:27:48;14.77;;;3.95;;
68072;SDS011;54862;51.502;7.446;2023-11-21T13:30:17;10.88;;;4.18;;
68072;SDS011;54862;51.502;7.446;2023-11-21T13:32:48;9.45;;;4.10;;
68072;SDS011;54862;51.502;7.446;2023-11-21T13:35:17;8.60;;;2.97;;
68072;SDS011;54862;51.502;7.446;2023-11-21T13:37:52;10.00;;;3.95;;
68072;SDS011;54862;51.502;7.446;2023-11-21T13:40:21;5.75;;;3.35;;
68072;SDS011;54862;51.502;7.446;2023-11-21T13:42:54;8.93;;;3.17;;
68072;SDS011;54862;51.502;7.446;2023-11-21T13:45:22;4.15;;;2.92;;
68072;SDS011;54862;51.502;7.446;2023-11-21T13:47:52;6.75;;;2.67;;
68072;SDS011;54862;51.502;7.446;2023-11-21T13:50:23;7.10;;;3.42;;
68072;SDS011;54862;51.502;7.446;2023-11-21T13:52:53;5.88;;;2.85;;
68072;SDS011;54862;51.502;7.446;2023-11-21T13:55:19;6.10;;;3.15;;
68072;SDS011;54862;51.502;7.446;2023-11-21T13:57:50;4.70;;;2.10;;
68072;SDS011;54862;51.502;7.446;2023-11-21T14:00:19;6.00;;;3.50;;
68072;SDS011;54862;51.502;7.446;2023-11-21T14:03:03;8.80;;;3.72;;
68072;SDS011;54862;51.502;7.446;2023-11-21T14:05:34;6.38;;;2.90;;
68072;SDS011;54862;51.502;7.446;2023-11-21T14:08:00;14.57;;;3.25;;
68072;SDS011;54862;51.502;7.446;2023-11-21T14:10:30;4.72;;;2.67;;
68072;SDS011;54862;51.502;7.446;2023-11-21T14:13:08;6.40;;;2.50;;
68072;SDS011;54862;51.502;7.446;2023-11-21T14:15:40;4.82;;;2.85;;
68072;SDS011;54862;51.502;7.446;2023-11-21T14:18:08;7.03;;;3.55;;
68072;SDS011;54862;51.502;7.446;2023-11-21T14:20:39;6.63;;;3.00;;
68072;SDS011;54862;51.502;7.446;2023-11-21T14:23:06;7.82;;;3.33;;
68072;SDS011;54862;51.502;7.446;2023-11-21T14:25:33;9.68;;;3.10;;
68072;SDS011;54862;51.502;7.446;2023-11-21T14:28:02;5.13;;;2.60;;
68072;SDS011;54862;51.502;7.446;2023-11-21T14:30:28;5.57;;;2.60;;
68072;SDS011;54862;51.502;7.446;2023-11-21T14:32:57;3.70;;;2.28;;
68072;SDS011;54862;51.502;7.446;2023-11-21T14:35:28;2.72;;;2.10;;
68072;SDS011;54862;51.502;7.446;2023-11-21T14:37:57;4.60;;;2.30;;
68072;SDS011;54862;51.502;7.446;2023-11-21T14:40:23;5.68;;;2.90;;
68072;SDS011;54862;51.502;7.446;2023-11-21T14:42:50;3.50;;;2.50;;
68072;SDS011;54862;51.502;7.446;2023-11-21T14:45:18;3.20;;;2.03;;
68072;SDS011;54862;51.502;7.446;2023-11-21T14:47:46;6.53;;;2.47;;
68072;SDS011;54862;51.502;7.446;2023-11-21T14:50:21;2.67;;;1.95;;
68072;SDS011;54862;51.502;7.446;2023-11-21T14:53:06;4.43;;;3.05;;
68072;SDS011;54862;51.502;7.446;2023-11-21T14:55:33;6.22;;;3.10;;
68072;SDS011;54862;51.502;7.446;2023-11-21T14:58:19;4.45;;;1.98;;
68072;SDS011;54862;51.502;7.446;2023-11-21T15:00:53;4.10;;;2.25;;
68072;SDS011;54862;51.502;7.446;2023-11-21T15:03:23;4.13;;;2.42;;
68072;SDS011;54862;51.502;7.446;2023-11-21T15:06:09;6.30;;;2.05;;
68072;SDS011;54862;51.502;7.446;2023-11-21T15:08:56;4.55;;;2.38;;
68072;SDS011;54862;51.502;7.446;2023-11-21T15:11:34;3.30;;;1.67;;